sensor_id;sensor_type;location;lat;lon;timestamp;P1;durP1;ratioP1;P2;durP2;ratioP2
80257;SDS011;69565;37.974;23.708;2023-06-10T00:01:41;17.52;;;2.85;;
80257;SDS011;69565;37.974;23.708;2023-06-10T00:04:08;12.23;;;3.15;;
80257;SDS011;69565;37.974;23.708;2023-06-10T00:06:34;9.88;;;3.25;;
80257;SDS011;69565;37.974;23.708;2023-06-10T00:09:03;10.38;;;3.22;;
80257;SDS011;69565;37.974;23.708;2023-06-10T00:11:35;10.50;;;2.50;;
80257;SDS011;69565;37.974;23.708;2023-06-10T00:14:02;6.43;;;3.28;;
80257;SDS011;69565;37.974;23.708;2023-06-10T00:16:28;6.90;;;2.97;;
80257;SDS011;69565;37.974;23.708;2023-06-10T00:18:53;8.68;;;3.08;;
80257;SDS011;69565;37.974;23.708;2023-06-10T00:21:26;9.05;;;3.17;;
80257;SDS011;69565;37.974;23.708;2023-06-10T00:23:52;5.50;;;2.83;;
80257;SDS011;69565;37.974;23.708;2023-06-10T00:26:20;8.32;;;3.58;;
80257;SDS011;69565;37.974;23.708;2023-06-10T00:28:47;8.63;;;3.15;;
80257;SDS011;69565;37.974;23.708;2023-06-10T00:31:13;7.88;;;2.90;;
80257;SDS011;69565;37.974;23.708;2023-06-10T00:33:39;6.70;;;3.45;;
80257;SDS011;69565;37.974;23.708;2023-06-10T00:36:04;6.88;;;3.10;;
80257;SDS011;69565;37.974;23.708;2023-06-10T00:38:30;5.60;;;3.15;;
80257;SDS011;69565;37.974;23.708;2023-06-10T00:40:57;10.38;;;3.30;;
80257;SDS011;69565;37.974;23.708;2023-06-10T00:43:22;5.15;;;3.00;;
80257;SDS011;69565;37.974;23.708;2023-06-10T00:45:49;9.68;;;3.40;;
80257;SDS011;69565;37.974;23.708;2023-06-10T00:48:16;6.82;;;3.47;;
80257;SDS011;69565;37.974;23.708;2023-06-10T00:50:43;6.65;;;3.05;;
80257;SDS011;69565;37.974;23.708;2023-06-10T00:53:09;6.30;;;3.17;;
80257;SDS011;69565;37.974;23.708;2023-06-10T00:55:35;5.63;;;3.58;;
80257;SDS011;69565;37.974;23.708;2023-06-10T00:58:02;14.27;;;2.90;;
80257;SDS011;69565;37.974;23.708;2023-06-10T01:00:29;9.63;;;3.67;;
80257;SDS011;69565;37.974;23.708;2023-06-10T01:02:54;4.15;;;2.25;;
80257;SDS011;69565;37.974;23.708;2023-06-10T01:05:20;10.82;;;2.92;;
80257;SDS011;69565;37.974;23.708;2023-06-10T01:10:24;8.23;;;3.42;;
80257;SDS011;69565;37.974;23.708;2023-06-10T01:12:59;10.80;;;3.55;;
80257;SDS011;69565;37.974;23.708;2023-06-10T01:15:29;6.72;;;3.10;;
80257;SDS011;69565;37.974;23.708;2023-06-10T01:18:00;10.07;;;3.28;;
80257;SDS011;69565;37.974;23.708;2023-06-10T01:20:27;9.07;;;3.47;;
80257;SDS011;69565;37.974;23.708;2023-06-10T01:22:54;11.98;;;3.17;;
80257;SDS011;69565;37.974;23.708;2023-06-10T01:25:21;5.38;;;3.00;;
80257;SDS011;69565;37.974;23.708;2023-06-10T01:27:53;7.47;;;2.85;;
80257;SDS011;69565;37.974;23.708;2023-06-10T01:30:30;13.77;;;3.30;;
80257;SDS011;69565;37.974;23.708;2023-06-10T01:33:05;7.40;;;2.92;;
80257;SDS011;69565;37.974;23.708;2023-06-10T01:35:34;8.13;;;3.22;;
80257;SDS011;69565;37.974;23.708;2023-06-10T01:38:03;12.10;;;3.55;;
80257;SDS011;69565;37.974;23.708;2023-06-10T01:40:29;12.65;;;3.47;;
80257;SDS011;69565;37.974;23.708;2023-06-10T01:42:57;5.80;;;2.85;;
80257;SDS011;69565;37.974;23.708;2023-06-10T01:45:23;5.93;;;3.83;;
80257;SDS011;69565;37.974;23.708;2023-06-10T01:47:49;6.38;;;3.88;;
80257;SDS011;69565;37.974;23.708;2023-06-10T01:50:14;10.80;;;3.50;;
80257;SDS011;69565;37.974;23.708;2023-06-10T01:52:41;8.95;;;3.45;;
80257;SDS011;69565;37.974;23.708;2023-06-10T01:55:07;9.05;;;3.85;;
80257;SDS011;69565;37.974;23.708;2023-06-10T01:57:33;11.90;;;3.53;;
80257;SDS011;69565;37.974;23.708;2023-06-10T01:59:59;5.80;;;3.22;;
80257;SDS011;69565;37.974;23.708;2023-06-10T02:02:25;11.88;;;4.03;;
80257;SDS011;69565;37.974;23.708;2023-06-10T02:04:50;7.43;;;2.85;;
80257;SDS011;69565;37.974;23.708;2023-06-10T02:07:16;6.28;;;3.50;;
80257;SDS011;69565;37.974;23.708;2023-06-10T02:09:44;7.75;;;3.30;;
80257;SDS011;69565;37.974;23.708;2023-06-10T02:12:10;8.13;;;3.15;;
80257;SDS011;69565;37.974;23.708;2023-06-10T02:14:36;10.82;;;3.15;;
80257;SDS011;69565;37.974;23.708;2023-06-10T02:17:02;8.07;;;2.05;;
80257;SDS011;69565;37.974;23.708;2023-06-10T02:19:29;9.85;;;2.97;;
80257;SDS011;69565;37.974;23.708;2023-06-10T02:21:55;9.57;;;3.97;;
80257;SDS011;69565;37.974;23.708;2023-06-10T02:24:21;7.10;;;3.45;;
80257;SDS011;69565;37.974;23.708;2023-06-10T02:26:47;8.30;;;3.65;;
80257;SDS011;69565;37.974;23.708;2023-06-10T02:29:13;7.70;;;3.20;;
80257;SDS011;69565;37.974;23.708;2023-06-10T02:31:38;10.00;;;3.58;;
80257;SDS011;69565;37.974;23.708;2023-06-10T02:34:04;5.45;;;3.28;;
80257;SDS011;69565;37.974;23.708;2023-06-10T02:36:30;7.20;;;3.80;;
80257;SDS011;69565;37.974;23.708;2023-06-10T02:38:56;8.63;;;2.85;;
80257;SDS011;69565;37.974;23.708;2023-06-10T02:41:22;9.70;;;3.67;;
80257;SDS011;69565;37.974;23.708;2023-06-10T02:43:48;10.55;;;3.08;;
80257;SDS011;69565;37.974;23.708;2023-06-10T02:46:13;4.82;;;2.80;;
80257;SDS011;69565;37.974;23.708;2023-06-10T02:48:43;8.98;;;2.97;;
80257;SDS011;69565;37.974;23.708;2023-06-10T02:51:09;6.53;;;3.45;;
80257;SDS011;69565;37.974;23.708;2023-06-10T02:53:35;4.38;;;2.83;;
80257;SDS011;69565;37.974;23.708;2023-06-10T02:56:01;8.30;;;3.50;;
80257;SDS011;69565;37.974;23.708;2023-06-10T02:58:27;8.18;;;3.22;;
80257;SDS011;69565;37.974;23.708;2023-06-10T03:00:53;7.72;;;3.22;;
80257;SDS011;69565;37.974;23.708;2023-06-10T03:03:18;5.10;;;2.38;;
80257;SDS011;69565;37.974;23.708;2023-06-10T03:05:45;8.02;;;2.78;;
80257;SDS011;69565;37.974;23.708;2023-06-10T03:08:10;10.77;;;2.63;;
80257;SDS011;69565;37.974;23.708;2023-06-10T03:10:36;11.18;;;3.03;;
80257;SDS011;69565;37.974;23.708;2023-06-10T03:13:02;11.60;;;3.33;;
80257;SDS011;69565;37.974;23.708;2023-06-10T03:15:30;7.05;;;2.90;;
80257;SDS011;69565;37.974;23.708;2023-06-10T03:17:58;5.38;;;2.42;;
80257;SDS011;69565;37.974;23.708;2023-06-10T03:20:25;9.38;;;3.15;;
80257;SDS011;69565;37.974;23.708;2023-06-10T03:22:52;10.30;;;3.40;;
80257;SDS011;69565;37.974;23.708;2023-06-10T03:25:18;6.82;;;2.70;;
80257;SDS011;69565;37.974;23.708;2023-06-10T03:27:45;5.90;;;3.08;;
80257;SDS011;69565;37.974;23.708;2023-06-10T03:30:12;5.75;;;2.60;;
80257;SDS011;69565;37.974;23.708;2023-06-10T03:32:39;5.95;;;2.80;;
80257;SDS011;69565;37.974;23.708;2023-06-10T03:35:06;8.32;;;3.30;;
80257;SDS011;69565;37.974;23.708;2023-06-10T03:37:32;8.65;;;2.97;;
80257;SDS011;69565;37.974;23.708;2023-06-10T03:39:58;8.88;;;3.35;;
80257;SDS011;69565;37.974;23.708;2023-06-10T03:42:23;7.97;;;3.38;;
80257;SDS011;69565;37.974;23.708;2023-06-10T03:44:51;10.93;;;3.40;;
80257;SDS011;69565;37.974;23.708;2023-06-10T03:47:17;8.15;;;2.95;;
80257;SDS011;69565;37.974;23.708;2023-06-10T03:49:43;7.22;;;2.78;;
80257;SDS011;69565;37.974;23.708;2023-06-10T03:52:08;8.25;;;2.97;;
80257;SDS011;69565;37.974;23.708;2023-06-10T03:54:34;5.40;;;2.70;;
80257;SDS011;69565;37.974;23.708;2023-06-10T03:57:00;10.07;;;3.20;;
80257;SDS011;69565;37.974;23.708;2023-06-10T03:59:26;14.73;;;2.95;;
80257;SDS011;69565;37.974;23.708;2023-06-10T04:01:52;7.93;;;3.13;;
80257;SDS011;69565;37.974;23.708;2023-06-10T04:04:17;12.20;;;2.33;;
80257;SDS011;69565;37.974;23.708;2023-06-10T04:06:43;7.57;;;2.80;;
80257;SDS011;69565;37.974;23.708;2023-06-10T04:09:09;8.65;;;3.10;;
80257;SDS011;69565;37.974;23.708;2023-06-10T04:11:35;5.07;;;2.47;;
80257;SDS011;69565;37.974;23.708;2023-06-10T04:14:02;10.25;;;3.08;;
80257;SDS011;69565;37.974;23.708;2023-06-10T04:16:28;9.23;;;2.58;;
80257;SDS011;69565;37.974;23.708;2023-06-10T04:18:53;11.55;;;3.10;;
80257;SDS011;69565;37.974;23.708;2023-06-10T04:21:20;7.68;;;3.05;;
80257;SDS011;69565;37.974;23.708;2023-06-10T04:23:47;7.40;;;2.92;;
80257;SDS011;69565;37.974;23.708;2023-06-10T04:26:13;17.27;;;3.60;;
80257;SDS011;69565;37.974;23.708;2023-06-10T04:28:39;9.43;;;2.72;;
80257;SDS011;69565;37.974;23.708;2023-06-10T04:31:05;10.38;;;2.83;;
80257;SDS011;69565;37.974;23.708;2023-06-10T04:33:30;7.00;;;3.00;;
80257;SDS011;69565;37.974;23.708;2023-06-10T04:35:56;11.95;;;3.60;;
80257;SDS011;69565;37.974;23.708;2023-06-10T04:38:23;8.38;;;2.90;;
80257;SDS011;69565;37.974;23.708;2023-06-10T04:40:49;5.97;;;2.65;;
80257;SDS011;69565;37.974;23.708;2023-06-10T04:43:14;17.85;;;4.50;;
80257;SDS011;69565;37.974;23.708;2023-06-10T04:45:41;10.48;;;4.00;;
80257;SDS011;69565;37.974;23.708;2023-06-10T04:48:10;14.02;;;2.95;;
80257;SDS011;69565;37.974;23.708;2023-06-10T04:50:36;8.18;;;2.67;;
80257;SDS011;69565;37.974;23.708;2023-06-10T04:53:02;6.28;;;3.22;;
80257;SDS011;69565;37.974;23.708;2023-06-10T04:55:28;10.90;;;2.35;;
80257;SDS011;69565;37.974;23.708;2023-06-10T04:57:54;14.02;;;2.75;;
80257;SDS011;69565;37.974;23.708;2023-06-10T05:00:20;6.70;;;2.60;;
80257;SDS011;69565;37.974;23.708;2023-06-10T05:02:46;6.55;;;2.33;;
80257;SDS011;69565;37.974;23.708;2023-06-10T05:05:15;6.68;;;2.95;;
80257;SDS011;69565;37.974;23.708;2023-06-10T05:07:41;9.35;;;2.55;;
80257;SDS011;69565;37.974;23.708;2023-06-10T05:10:07;6.35;;;2.67;;
80257;SDS011;69565;37.974;23.708;2023-06-10T05:12:33;6.25;;;2.10;;
80257;SDS011;69565;37.974;23.708;2023-06-10T05:14:59;12.25;;;1.95;;
80257;SDS011;69565;37.974;23.708;2023-06-10T05:17:25;5.07;;;2.33;;
80257;SDS011;69565;37.974;23.708;2023-06-10T05:19:51;7.25;;;2.33;;
80257;SDS011;69565;37.974;23.708;2023-06-10T05:22:16;8.98;;;2.42;;
80257;SDS011;69565;37.974;23.708;2023-06-10T05:24:43;7.18;;;2.20;;
80257;SDS011;69565;37.974;23.708;2023-06-10T05:27:09;5.25;;;2.03;;
80257;SDS011;69565;37.974;23.708;2023-06-10T05:29:35;7.00;;;1.73;;
80257;SDS011;69565;37.974;23.708;2023-06-10T05:32:01;4.18;;;1.75;;
80257;SDS011;69565;37.974;23.708;2023-06-10T05:34:29;6.03;;;1.70;;
80257;SDS011;69565;37.974;23.708;2023-06-10T05:36:55;4.32;;;1.50;;
80257;SDS011;69565;37.974;23.708;2023-06-10T05:39:20;5.25;;;1.92;;
80257;SDS011;69565;37.974;23.708;2023-06-10T05:41:46;3.45;;;1.70;;
80257;SDS011;69565;37.974;23.708;2023-06-10T05:44:12;6.35;;;1.80;;
80257;SDS011;69565;37.974;23.708;2023-06-10T05:46:38;4.15;;;1.58;;
80257;SDS011;69565;37.974;23.708;2023-06-10T05:49:03;3.33;;;1.85;;
80257;SDS011;69565;37.974;23.708;2023-06-10T05:51:29;2.58;;;1.77;;
80257;SDS011;69565;37.974;23.708;2023-06-10T05:53:55;3.25;;;1.65;;
80257;SDS011;69565;37.974;23.708;2023-06-10T05:56:20;5.10;;;1.70;;
80257;SDS011;69565;37.974;23.708;2023-06-10T05:58:47;5.63;;;1.58;;
80257;SDS011;69565;37.974;23.708;2023-06-10T06:01:13;5.72;;;1.90;;
80257;SDS011;69565;37.974;23.708;2023-06-10T06:03:39;3.38;;;1.50;;
80257;SDS011;69565;37.974;23.708;2023-06-10T06:06:05;3.67;;;1.60;;
80257;SDS011;69565;37.974;23.708;2023-06-10T06:08:31;2.80;;;1.52;;
80257;SDS011;69565;37.974;23.708;2023-06-10T06:10:57;2.13;;;1.40;;
80257;SDS011;69565;37.974;23.708;2023-06-10T06:13:23;2.40;;;1.25;;
80257;SDS011;69565;37.974;23.708;2023-06-10T06:15:48;3.92;;;1.48;;
80257;SDS011;69565;37.974;23.708;2023-06-10T06:18:15;4.28;;;1.60;;
80257;SDS011;69565;37.974;23.708;2023-06-10T06:20:40;2.33;;;1.52;;
80257;SDS011;69565;37.974;23.708;2023-06-10T06:23:06;6.38;;;1.40;;
80257;SDS011;69565;37.974;23.708;2023-06-10T06:25:35;4.22;;;1.48;;
80257;SDS011;69565;37.974;23.708;2023-06-10T06:28:02;4.32;;;1.23;;
80257;SDS011;69565;37.974;23.708;2023-06-10T06:30:28;5.60;;;1.40;;
80257;SDS011;69565;37.974;23.708;2023-06-10T06:32:53;4.57;;;1.20;;
80257;SDS011;69565;37.974;23.708;2023-06-10T06:35:20;2.20;;;1.20;;
80257;SDS011;69565;37.974;23.708;2023-06-10T06:37:45;4.00;;;1.30;;
80257;SDS011;69565;37.974;23.708;2023-06-10T06:40:11;3.30;;;1.35;;
80257;SDS011;69565;37.974;23.708;2023-06-10T06:42:37;5.13;;;1.20;;
80257;SDS011;69565;37.974;23.708;2023-06-10T06:45:03;1.80;;;1.20;;
80257;SDS011;69565;37.974;23.708;2023-06-10T06:47:29;4.22;;;1.30;;
80257;SDS011;69565;37.974;23.708;2023-06-10T06:49:55;3.35;;;1.23;;
80257;SDS011;69565;37.974;23.708;2023-06-10T06:52:20;6.88;;;1.40;;
80257;SDS011;69565;37.974;23.708;2023-06-10T06:54:47;4.07;;;1.05;;
80257;SDS011;69565;37.974;23.708;2023-06-10T06:57:13;8.95;;;1.10;;
80257;SDS011;69565;37.974;23.708;2023-06-10T06:59:39;2.15;;;1.20;;
80257;SDS011;69565;37.974;23.708;2023-06-10T07:02:05;1.73;;;1.02;;
80257;SDS011;69565;37.974;23.708;2023-06-10T07:04:31;2.75;;;1.00;;
80257;SDS011;69565;37.974;23.708;2023-06-10T07:06:57;1.90;;;1.40;;
80257;SDS011;69565;37.974;23.708;2023-06-10T07:09:22;2.22;;;1.20;;
80257;SDS011;69565;37.974;23.708;2023-06-10T07:11:48;4.75;;;1.20;;
80257;SDS011;69565;37.974;23.708;2023-06-10T07:14:14;2.33;;;1.10;;
80257;SDS011;69565;37.974;23.708;2023-06-10T07:16:40;6.35;;;1.10;;
80257;SDS011;69565;37.974;23.708;2023-06-10T07:19:05;2.65;;;1.13;;
80257;SDS011;69565;37.974;23.708;2023-06-10T07:21:31;2.28;;;1.00;;
80257;SDS011;69565;37.974;23.708;2023-06-10T07:23:58;3.72;;;1.10;;
80257;SDS011;69565;37.974;23.708;2023-06-10T07:26:24;5.65;;;1.30;;
80257;SDS011;69565;37.974;23.708;2023-06-10T07:28:51;5.55;;;1.10;;
80257;SDS011;69565;37.974;23.708;2023-06-10T07:31:17;4.13;;;1.13;;
80257;SDS011;69565;37.974;23.708;2023-06-10T07:33:43;2.65;;;1.10;;
80257;SDS011;69565;37.974;23.708;2023-06-10T07:36:09;3.17;;;1.20;;
80257;SDS011;69565;37.974;23.708;2023-06-10T07:38:35;3.45;;;1.15;;
80257;SDS011;69565;37.974;23.708;2023-06-10T07:41:01;2.38;;;1.10;;
80257;SDS011;69565;37.974;23.708;2023-06-10T07:43:27;1.85;;;1.00;;
80257;SDS011;69565;37.974;23.708;2023-06-10T07:45:53;4.05;;;1.20;;
80257;SDS011;69565;37.974;23.708;2023-06-10T07:48:19;2.40;;;1.00;;
80257;SDS011;69565;37.974;23.708;2023-06-10T07:50:44;3.15;;;0.95;;
80257;SDS011;69565;37.974;23.708;2023-06-10T07:53:10;3.25;;;1.17;;
80257;SDS011;69565;37.974;23.708;2023-06-10T07:55:36;3.13;;;1.10;;
80257;SDS011;69565;37.974;23.708;2023-06-10T07:58:01;2.60;;;1.10;;
80257;SDS011;69565;37.974;23.708;2023-06-10T08:00:27;3.50;;;1.00;;
80257;SDS011;69565;37.974;23.708;2023-06-10T08:02:53;6.10;;;1.20;;
80257;SDS011;69565;37.974;23.708;2023-06-10T08:05:18;2.80;;;1.10;;
80257;SDS011;69565;37.974;23.708;2023-06-10T08:07:45;3.75;;;1.00;;
80257;SDS011;69565;37.974;23.708;2023-06-10T08:10:11;3.03;;;1.10;;
80257;SDS011;69565;37.974;23.708;2023-06-10T08:12:37;3.83;;;0.93;;
80257;SDS011;69565;37.974;23.708;2023-06-10T08:15:02;4.35;;;1.00;;
80257;SDS011;69565;37.974;23.708;2023-06-10T08:17:29;5.22;;;1.20;;
80257;SDS011;69565;37.974;23.708;2023-06-10T08:19:55;1.77;;;1.00;;
80257;SDS011;69565;37.974;23.708;2023-06-10T08:22:21;3.47;;;1.10;;
80257;SDS011;69565;37.974;23.708;2023-06-10T08:24:47;6.22;;;1.00;;
80257;SDS011;69565;37.974;23.708;2023-06-10T08:27:13;4.68;;;1.00;;
80257;SDS011;69565;37.974;23.708;2023-06-10T08:29:39;4.35;;;1.00;;
80257;SDS011;69565;37.974;23.708;2023-06-10T08:32:05;2.53;;;1.10;;
80257;SDS011;69565;37.974;23.708;2023-06-10T08:34:34;4.20;;;1.00;;
80257;SDS011;69565;37.974;23.708;2023-06-10T08:37:01;1.70;;;1.00;;
80257;SDS011;69565;37.974;23.708;2023-06-10T08:39:27;4.28;;;1.10;;
80257;SDS011;69565;37.974;23.708;2023-06-10T08:42:04;2.20;;;1.00;;
80257;SDS011;69565;37.974;23.708;2023-06-10T08:44:38;4.32;;;0.95;;
80257;SDS011;69565;37.974;23.708;2023-06-10T08:47:15;5.57;;;1.10;;
80257;SDS011;69565;37.974;23.708;2023-06-10T08:49:45;1.63;;;1.00;;
80257;SDS011;69565;37.974;23.708;2023-06-10T08:52:16;3.33;;;1.00;;
80257;SDS011;69565;37.974;23.708;2023-06-10T08:57:13;3.15;;;1.10;;
80257;SDS011;69565;37.974;23.708;2023-06-10T08:59:40;3.35;;;1.10;;
80257;SDS011;69565;37.974;23.708;2023-06-10T09:02:06;3.75;;;1.05;;
80257;SDS011;69565;37.974;23.708;2023-06-10T09:04:33;1.83;;;1.08;;
80257;SDS011;69565;37.974;23.708;2023-06-10T09:07:02;4.60;;;1.00;;
80257;SDS011;69565;37.974;23.708;2023-06-10T09:09:28;5.45;;;1.30;;
80257;SDS011;69565;37.974;23.708;2023-06-10T09:11:57;4.20;;;1.10;;
80257;SDS011;69565;37.974;23.708;2023-06-10T09:14:23;2.95;;;1.10;;
80257;SDS011;69565;37.974;23.708;2023-06-10T09:16:50;4.65;;;1.17;;
80257;SDS011;69565;37.974;23.708;2023-06-10T09:19:17;2.95;;;1.40;;
80257;SDS011;69565;37.974;23.708;2023-06-10T09:21:46;2.08;;;1.08;;
80257;SDS011;69565;37.974;23.708;2023-06-10T09:24:11;9.30;;;1.30;;
80257;SDS011;69565;37.974;23.708;2023-06-10T09:26:37;3.90;;;1.20;;
80257;SDS011;69565;37.974;23.708;2023-06-10T09:29:04;1.63;;;1.02;;
80257;SDS011;69565;37.974;23.708;2023-06-10T09:31:30;6.35;;;1.00;;
80257;SDS011;69565;37.974;23.708;2023-06-10T09:34:09;3.88;;;1.13;;
80257;SDS011;69565;37.974;23.708;2023-06-10T09:36:36;3.65;;;1.10;;
80257;SDS011;69565;37.974;23.708;2023-06-10T09:39:02;2.35;;;1.15;;
80257;SDS011;69565;37.974;23.708;2023-06-10T09:41:35;3.45;;;1.23;;
80257;SDS011;69565;37.974;23.708;2023-06-10T09:44:09;4.20;;;1.10;;
80257;SDS011;69565;37.974;23.708;2023-06-10T09:46:42;3.85;;;1.00;;
80257;SDS011;69565;37.974;23.708;2023-06-10T09:49:09;4.63;;;1.17;;
80257;SDS011;69565;37.974;23.708;2023-06-10T09:51:35;2.67;;;1.10;;
80257;SDS011;69565;37.974;23.708;2023-06-10T09:54:04;6.15;;;1.08;;
80257;SDS011;69565;37.974;23.708;2023-06-10T09:56:36;3.40;;;1.23;;
80257;SDS011;69565;37.974;23.708;2023-06-10T09:59:02;3.58;;;1.00;;
80257;SDS011;69565;37.974;23.708;2023-06-10T10:01:31;2.38;;;1.10;;
80257;SDS011;69565;37.974;23.708;2023-06-10T10:03:58;2.30;;;1.15;;
80257;SDS011;69565;37.974;23.708;2023-06-10T10:06:25;1.92;;;1.13;;
80257;SDS011;69565;37.974;23.708;2023-06-10T10:08:52;2.83;;;1.50;;
80257;SDS011;69565;37.974;23.708;2023-06-10T10:11:19;3.45;;;1.20;;
80257;SDS011;69565;37.974;23.708;2023-06-10T10:13:47;5.82;;;1.20;;
80257;SDS011;69565;37.974;23.708;2023-06-10T10:16:15;4.03;;;1.10;;
80257;SDS011;69565;37.974;23.708;2023-06-10T10:18:47;4.68;;;1.02;;
80257;SDS011;69565;37.974;23.708;2023-06-10T10:21:37;2.03;;;0.93;;
80257;SDS011;69565;37.974;23.708;2023-06-10T10:24:18;3.10;;;1.02;;
80257;SDS011;69565;37.974;23.708;2023-06-10T10:26:47;3.47;;;1.10;;
80257;SDS011;69565;37.974;23.708;2023-06-10T10:31:51;3.15;;;1.10;;
80257;SDS011;69565;37.974;23.708;2023-06-10T10:34:21;2.13;;;1.10;;
80257;SDS011;69565;37.974;23.708;2023-06-10T10:36:55;3.97;;;1.00;;
80257;SDS011;69565;37.974;23.708;2023-06-10T10:39:21;3.08;;;1.10;;
80257;SDS011;69565;37.974;23.708;2023-06-10T10:41:47;6.93;;;1.00;;
80257;SDS011;69565;37.974;23.708;2023-06-10T10:44:15;4.50;;;1.08;;
80257;SDS011;69565;37.974;23.708;2023-06-10T10:46:45;1.60;;;1.00;;
80257;SDS011;69565;37.974;23.708;2023-06-10T10:49:15;1.40;;;1.00;;
80257;SDS011;69565;37.974;23.708;2023-06-10T10:51:58;3.20;;;1.00;;
80257;SDS011;69565;37.974;23.708;2023-06-10T10:54:32;1.67;;;1.13;;
80257;SDS011;69565;37.974;23.708;2023-06-10T11:02:09;2.60;;;1.00;;
80257;SDS011;69565;37.974;23.708;2023-06-10T11:04:35;2.10;;;1.10;;
80257;SDS011;69565;37.974;23.708;2023-06-10T11:07:06;3.03;;;1.15;;
80257;SDS011;69565;37.974;23.708;2023-06-10T11:09:33;1.90;;;0.90;;
80257;SDS011;69565;37.974;23.708;2023-06-10T11:11:58;3.10;;;1.10;;
80257;SDS011;69565;37.974;23.708;2023-06-10T11:14:28;4.47;;;1.13;;
80257;SDS011;69565;37.974;23.708;2023-06-10T11:16:58;2.55;;;1.10;;
80257;SDS011;69565;37.974;23.708;2023-06-10T11:19:31;1.73;;;1.10;;
80257;SDS011;69565;37.974;23.708;2023-06-10T11:22:06;2.83;;;1.10;;
80257;SDS011;69565;37.974;23.708;2023-06-10T11:24:40;2.60;;;1.00;;
80257;SDS011;69565;37.974;23.708;2023-06-10T11:27:16;2.60;;;0.90;;
80257;SDS011;69565;37.974;23.708;2023-06-10T11:29:55;3.40;;;0.90;;
80257;SDS011;69565;37.974;23.708;2023-06-10T11:32:21;4.50;;;1.20;;
80257;SDS011;69565;37.974;23.708;2023-06-10T11:34:54;6.03;;;1.20;;
80257;SDS011;69565;37.974;23.708;2023-06-10T11:37:21;5.55;;;1.10;;
80257;SDS011;69565;37.974;23.708;2023-06-10T11:39:47;1.85;;;1.00;;
80257;SDS011;69565;37.974;23.708;2023-06-10T11:42:16;1.27;;;1.00;;
80257;SDS011;69565;37.974;23.708;2023-06-10T11:44:53;4.13;;;1.10;;
80257;SDS011;69565;37.974;23.708;2023-06-10T11:47:19;2.42;;;1.02;;
80257;SDS011;69565;37.974;23.708;2023-06-10T11:49:55;2.38;;;0.98;;
80257;SDS011;69565;37.974;23.708;2023-06-10T11:52:28;2.90;;;1.00;;
80257;SDS011;69565;37.974;23.708;2023-06-10T11:55:04;2.42;;;1.10;;
80257;SDS011;69565;37.974;23.708;2023-06-10T11:57:33;5.03;;;1.15;;
80257;SDS011;69565;37.974;23.708;2023-06-10T12:00:04;1.88;;;1.00;;
80257;SDS011;69565;37.974;23.708;2023-06-10T12:02:33;5.18;;;1.10;;
80257;SDS011;69565;37.974;23.708;2023-06-10T12:05:14;2.75;;;1.10;;
80257;SDS011;69565;37.974;23.708;2023-06-10T12:07:40;2.53;;;1.00;;
80257;SDS011;69565;37.974;23.708;2023-06-10T12:10:06;3.28;;;1.20;;
80257;SDS011;69565;37.974;23.708;2023-06-10T12:12:34;2.00;;;1.00;;
80257;SDS011;69565;37.974;23.708;2023-06-10T12:15:01;2.83;;;1.20;;
80257;SDS011;69565;37.974;23.708;2023-06-10T12:19:56;3.10;;;1.15;;
80257;SDS011;69565;37.974;23.708;2023-06-10T12:22:22;4.43;;;1.10;;
80257;SDS011;69565;37.974;23.708;2023-06-10T12:25:04;2.65;;;0.93;;
80257;SDS011;69565;37.974;23.708;2023-06-10T12:27:32;4.68;;;1.00;;
80257;SDS011;69565;37.974;23.708;2023-06-10T12:29:59;3.10;;;0.95;;
80257;SDS011;69565;37.974;23.708;2023-06-10T12:32:41;1.45;;;1.00;;
80257;SDS011;69565;37.974;23.708;2023-06-10T12:35:09;2.10;;;1.05;;
80257;SDS011;69565;37.974;23.708;2023-06-10T12:37:42;1.95;;;1.00;;
80257;SDS011;69565;37.974;23.708;2023-06-10T12:40:25;5.88;;;1.20;;
80257;SDS011;69565;37.974;23.708;2023-06-10T12:43:01;2.58;;;1.00;;
80257;SDS011;69565;37.974;23.708;2023-06-10T12:45:28;1.75;;;1.00;;
80257;SDS011;69565;37.974;23.708;2023-06-10T12:48:08;2.58;;;1.00;;
80257;SDS011;69565;37.974;23.708;2023-06-10T12:50:36;1.98;;;1.10;;
80257;SDS011;69565;37.974;23.708;2023-06-10T12:53:06;1.30;;;0.90;;
80257;SDS011;69565;37.974;23.708;2023-06-10T12:55:33;1.05;;;0.80;;
80257;SDS011;69565;37.974;23.708;2023-06-10T12:57:59;2.28;;;0.95;;
80257;SDS011;69565;37.974;23.708;2023-06-10T13:00:26;2.50;;;1.10;;
80257;SDS011;69565;37.974;23.708;2023-06-10T13:03:00;1.60;;;0.90;;
80257;SDS011;69565;37.974;23.708;2023-06-10T13:05:27;3.22;;;0.90;;
80257;SDS011;69565;37.974;23.708;2023-06-10T13:07:53;3.35;;;1.00;;
80257;SDS011;69565;37.974;23.708;2023-06-10T13:10:20;1.67;;;1.00;;
80257;SDS011;69565;37.974;23.708;2023-06-10T13:12:46;1.85;;;0.90;;
80257;SDS011;69565;37.974;23.708;2023-06-10T13:15:12;4.05;;;0.90;;
80257;SDS011;69565;37.974;23.708;2023-06-10T13:17:39;1.27;;;0.90;;
80257;SDS011;69565;37.974;23.708;2023-06-10T13:20:05;1.67;;;0.90;;
80257;SDS011;69565;37.974;23.708;2023-06-10T13:22:32;1.75;;;1.00;;
80257;SDS011;69565;37.974;23.708;2023-06-10T13:25:00;1.13;;;0.80;;
80257;SDS011;69565;37.974;23.708;2023-06-10T13:27:28;1.25;;;0.80;;
80257;SDS011;69565;37.974;23.708;2023-06-10T13:29:55;1.30;;;1.00;;
80257;SDS011;69565;37.974;23.708;2023-06-10T13:32:21;1.85;;;0.80;;
80257;SDS011;69565;37.974;23.708;2023-06-10T13:34:47;1.30;;;0.90;;
80257;SDS011;69565;37.974;23.708;2023-06-10T13:37:15;1.33;;;0.80;;
80257;SDS011;69565;37.974;23.708;2023-06-10T13:39:43;1.65;;;0.90;;
80257;SDS011;69565;37.974;23.708;2023-06-10T13:42:09;2.72;;;0.77;;
80257;SDS011;69565;37.974;23.708;2023-06-10T13:44:34;2.45;;;0.80;;
80257;SDS011;69565;37.974;23.708;2023-06-10T13:47:04;1.23;;;0.90;;
80257;SDS011;69565;37.974;23.708;2023-06-10T13:49:30;2.22;;;1.00;;
80257;SDS011;69565;37.974;23.708;2023-06-10T13:51:56;2.78;;;0.90;;
80257;SDS011;69565;37.974;23.708;2023-06-10T13:54:22;1.08;;;0.80;;
80257;SDS011;69565;37.974;23.708;2023-06-10T13:56:47;2.78;;;0.90;;
80257;SDS011;69565;37.974;23.708;2023-06-10T13:59:13;2.22;;;0.70;;
80257;SDS011;69565;37.974;23.708;2023-06-10T14:01:39;2.17;;;0.90;;
80257;SDS011;69565;37.974;23.708;2023-06-10T14:04:05;1.42;;;0.90;;
80257;SDS011;69565;37.974;23.708;2023-06-10T14:06:32;1.27;;;0.80;;
80257;SDS011;69565;37.974;23.708;2023-06-10T14:08:58;1.20;;;0.80;;
80257;SDS011;69565;37.974;23.708;2023-06-10T14:11:24;2.05;;;0.85;;
80257;SDS011;69565;37.974;23.708;2023-06-10T14:13:50;1.25;;;0.80;;
80257;SDS011;69565;37.974;23.708;2023-06-10T14:16:16;1.10;;;0.90;;
80257;SDS011;69565;37.974;23.708;2023-06-10T14:18:42;2.08;;;0.88;;
80257;SDS011;69565;37.974;23.708;2023-06-10T14:21:07;1.20;;;0.70;;
80257;SDS011;69565;37.974;23.708;2023-06-10T14:23:33;1.60;;;0.90;;
80257;SDS011;69565;37.974;23.708;2023-06-10T14:25:59;1.60;;;0.90;;
80257;SDS011;69565;37.974;23.708;2023-06-10T14:28:25;1.73;;;0.95;;
80257;SDS011;69565;37.974;23.708;2023-06-10T14:30:52;2.35;;;0.90;;
80257;SDS011;69565;37.974;23.708;2023-06-10T14:33:18;2.53;;;0.80;;
80257;SDS011;69565;37.974;23.708;2023-06-10T14:35:44;2.20;;;0.90;;
80257;SDS011;69565;37.974;23.708;2023-06-10T14:38:10;2.58;;;0.90;;
80257;SDS011;69565;37.974;23.708;2023-06-10T14:40:35;1.38;;;0.80;;
80257;SDS011;69565;37.974;23.708;2023-06-10T14:43:02;1.65;;;0.90;;
80257;SDS011;69565;37.974;23.708;2023-06-10T14:45:34;1.40;;;0.80;;
80257;SDS011;69565;37.974;23.708;2023-06-10T14:48:04;2.03;;;0.80;;
80257;SDS011;69565;37.974;23.708;2023-06-10T14:50:30;5.10;;;0.90;;